Kingston, Oklahoma
Current Conditions -  °F | °C
As of 6:35 PM on Sunday 21 Dec 2014 (Local Time) from KDUA Reporting Station
Haze Haze  
Wind Chill: 41°   Ceiling: 600
Heat Index: 46°   Visibility: 4mi
Dew Point: 45°   Wind: 13mph
Humidity: 93%   Direction: 160°SSE
Pressure: 29.83"   Gusts: NA
Location:  34°N, 96.72°W
Report Text: KDUA 220035Z AUTO 16011KT 4SM BR BKN006 OVC009 08/07 A2983 RMK AO2
Loading
Personal Weather Stations






























Interactive Weather Map New forecast layout! Learn more

10-Day Weather Forecast

Advertisements
Track Severe Weather on mobile